Archival Weather

Chicago O'Hare International

Chicago, Illinois (KORD)

Report from: Friday, December 16, 2022 9:28 PM CST
Current time: Friday, June 21, 2024 6:00 PM CDT

Current weather – Weather history – Daily summaries
Weather forecast

Present weatherLight snow, mist
Temperature-3.3°C (26.1°F)
Wind chill-10.0°C (14.0°F)
Dew point-6.1°C (21.0°F)
Winds 13 kts (6.7 m/s, 15 mph) West-Southwest (240°)
Wind gusts 23 kts (11.8 m/s, 26.5 mph)
Visibility3 mi. (4.8 km)
Clouds Scattered clouds 1,500 ft. (457 m)
Ceiling: Broken clouds 2,300 ft. (701 m)
Overcast 3,300 ft. (1,006 m)
Altimeter29.67 in.Hg (1005 mB)
PrecipitiationTrace
Relative humidity81 %
Density altitude-1,899 ft. (-579 m)
Remarks System requires maintenance
Automated weather observing station with precipitation discriminator
Flight conditions Marginal Visual Meteorological Conditions
Raw dataKORD 170328Z 24013G23KT 3SM -SN BR SCT015 BKN023 OVC033 M03/M06 A2967 RMK AO2 P0000 T10331061 $
An error has occurred. This application may no longer respond until reloaded. Reload 🗙